Time;durP1;ratioP1;P1;durP2;ratioP2;P2;SDS_P1;SDS_P2;PMS_P1;PMS_P2;Temp;Humidity;BMP_temperature;BMP_pressure;BME280_temperature;BME280_humidity;BME280_pressure;Samples;Min_cycle;Max_cycle;Signal;HPM_P1;HPM_P2
2023/11/30 00:00:43;;;;;;;31.27;21.50;;;1.70;99.90;;;;;;5033317;28;20108;-61
2023/11/30 00:03:09;;;;;;;31.48;20.15;;;1.60;99.90;;;;;;5032635;28;20030;-58
2023/11/30 00:05:35;;;;;;;30.77;20.30;;;1.70;99.90;;;;;;5032684;28;20026;-58
2023/11/30 00:08:01;;;;;;;31.15;19.52;;;1.40;99.90;;;;;;5051537;28;20036;-61
2023/11/30 00:10:26;;;;;;;28.60;18.65;;;1.20;99.90;;;;;;5052715;28;20025;-63
2023/11/30 00:12:52;;;;;;;25.73;16.92;;;1.20;99.90;;;;;;5052683;28;20032;-66
2023/11/30 00:15:18;;;;;;;22.17;14.70;;;1.30;99.90;;;;;;5052421;28;20473;-65
2023/11/30 00:17:43;;;;;;;24.17;14.50;;;1.10;99.90;;;;;;5033581;28;20065;-58
2023/11/30 00:20:10;;;;;;;23.52;12.77;;;0.90;99.90;;;;;;5052331;28;20135;-63
2023/11/30 00:22:36;;;;;;;24.27;15.48;;;0.60;99.90;;;;;;5033649;28;20041;-59
2023/11/30 00:25:02;;;;;;;23.27;14.93;;;0.70;99.90;;;;;;5033717;28;20106;-63
2023/11/30 00:27:28;;;;;;;23.98;15.68;;;0.70;99.90;;;;;;5016797;28;20052;-63
2023/11/30 00:29:54;;;;;;;21.38;15.63;;;0.80;99.90;;;;;;5033333;28;20029;-58
2023/11/30 00:32:20;;;;;;;25.50;15.65;;;0.80;99.90;;;;;;5052196;28;20078;-67
2023/11/30 00:34:45;;;;;;;18.00;13.15;;;0.80;99.90;;;;;;5052216;28;20102;-62
2023/11/30 00:37:11;;;;;;;22.17;14.18;;;0.80;99.90;;;;;;5052043;28;20032;-61
2023/11/30 00:39:37;;;;;;;21.63;14.63;;;0.80;99.90;;;;;;5052031;28;20037;-59
2023/11/30 00:42:03;;;;;;;21.75;14.45;;;1.10;99.90;;;;;;5052056;28;20068;-59
2023/11/30 00:44:29;;;;;;;24.98;16.48;;;1.30;99.90;;;;;;5050955;28;20114;-59
2023/11/30 00:46:54;;;;;;;21.38;15.50;;;1.50;99.90;;;;;;5052165;28;20033;-63
2023/11/30 00:49:20;;;;;;;22.58;15.30;;;1.60;99.90;;;;;;5051714;28;20475;-62
2023/11/30 00:51:46;;;;;;;24.95;16.48;;;1.50;99.90;;;;;;5051831;28;20087;-62
2023/11/30 00:54:11;;;;;;;24.20;16.92;;;1.60;99.90;;;;;;5052003;28;20071;-60
2023/11/30 00:56:37;;;;;;;25.55;16.50;;;1.80;99.90;;;;;;5051939;28;20033;-62
2023/11/30 00:59:03;;;;;;;25.08;17.70;;;2.00;99.90;;;;;;5052120;28;20029;-59
2023/11/30 01:01:28;;;;;;;26.20;17.33;;;2.00;99.90;;;;;;5015880;28;20068;-59
2023/11/30 01:03:54;;;;;;;25.58;17.85;;;2.20;99.90;;;;;;5032844;28;20052;-64
2023/11/30 01:06:20;;;;;;;27.60;17.73;;;2.30;99.90;;;;;;5051597;28;20025;-63
2023/11/30 01:08:46;;;;;;;27.13;17.00;;;2.40;99.90;;;;;;5051950;28;20031;-63
2023/11/30 01:11:12;;;;;;;23.40;15.90;;;2.20;99.90;;;;;;5051806;28;20039;-62
2023/11/30 01:13:38;;;;;;;22.70;15.75;;;2.20;99.90;;;;;;5051544;28;20450;-58
2023/11/30 01:16:04;;;;;;;28.88;15.63;;;2.10;99.90;;;;;;5051821;28;20028;-60
2023/11/30 01:18:29;;;;;;;22.60;15.90;;;1.70;99.90;;;;;;5016346;28;20139;-66
2023/11/30 01:20:55;;;;;;;20.40;14.18;;;;;;;;;;5051631;28;20104;-65
2023/11/30 01:23:21;;;;;;;26.10;15.85;;;1.30;99.90;;;;;;5051747;28;20439;-59
2023/11/30 01:25:47;;;;;;;28.85;17.52;;;1.20;99.90;;;;;;5051709;28;20029;-63
2023/11/30 01:28:13;;;;;;;29.48;18.75;;;1.50;99.90;;;;;;5051573;28;20082;-55
2023/11/30 01:30:38;;;;;;;26.98;17.83;;;1.60;99.90;;;;;;5051325;28;20052;-62
2023/11/30 01:33:04;;;;;;;23.27;16.63;;;1.90;99.90;;;;;;5051416;28;20036;-57
2023/11/30 01:35:31;;;;;;;25.17;17.17;;;1.90;99.90;;;;;;5051503;28;20026;-57
2023/11/30 01:37:56;;;;;;;21.30;15.85;;;1.80;99.90;;;;;;5047549;28;20037;-66
2023/11/30 01:40:22;;;;;;;25.38;17.17;;;1.80;99.90;;;;;;5040265;28;20030;-61
2023/11/30 01:42:49;;;;;;;21.30;14.43;;;;;;;;;;5031478;28;20500;-62
2023/11/30 01:45:15;;;;;;;25.00;15.38;;;1.50;99.90;;;;;;5031606;28;20029;-61
2023/11/30 01:47:40;;;;;;;22.83;16.73;;;1.20;99.90;;;;;;5031352;28;20026;-64
2023/11/30 01:50:07;;;;;;;25.25;14.88;;;1.30;99.90;;;;;;5031806;28;20481;-59
2023/11/30 01:52:33;;;;;;;28.33;17.60;;;1.20;99.90;;;;;;5031482;28;20025;-58
2023/11/30 01:55:01;;;;;;;31.02;20.42;;;1.10;99.90;;;;;;5031533;28;20377;-63
2023/11/30 01:57:28;;;;;;;28.02;17.33;;;1.30;99.90;;;;;;4996328;28;20041;-65
2023/11/30 01:59:55;;;;;;;27.13;17.77;;;1.40;99.90;;;;;;5031669;28;20057;-63
2023/11/30 02:02:22;;;;;;;26.58;17.77;;;1.40;99.90;;;;;;5033795;28;20033;-63
2023/11/30 02:04:52;;;;;;;25.95;17.20;;;1.30;99.90;;;;;;5035032;28;20393;-62
2023/11/30 02:07:18;;;;;;;25.15;16.85;;;1.50;99.90;;;;;;5035210;28;20029;-62
2023/11/30 02:09:44;;;;;;;26.17;17.63;;;1.30;99.90;;;;;;5034899;28;20132;-63
2023/11/30 02:12:10;;;;;;;26.60;17.77;;;1.40;99.90;;;;;;5034952;28;20063;-58
2023/11/30 02:14:35;;;;;;;28.55;18.92;;;1.40;99.90;;;;;;5034795;28;20029;-58
2023/11/30 02:17:03;;;;;;;27.00;17.15;;;;;;;;;;5035010;28;20068;-65
2023/11/30 02:19:29;;;;;;;30.13;19.30;;;1.70;99.90;;;;;;5035043;28;20052;-63
2023/11/30 02:21:55;;;;;;;28.38;19.95;;;1.80;99.90;;;;;;5034879;28;20060;-65
2023/11/30 02:24:20;;;;;;;30.67;19.25;;;1.80;99.90;;;;;;5000043;28;20100;-61
2023/11/30 02:26:46;;;;;;;22.83;15.20;;;1.60;99.90;;;;;;5034595;28;20025;-60
2023/11/30 02:29:16;;;;;;;25.15;16.92;;;1.20;99.90;;;;;;5034794;28;20033;-57
2023/11/30 02:31:42;;;;;;;26.50;16.13;;;1.20;99.90;;;;;;5034273;28;20053;-61
2023/11/30 02:34:08;;;;;;;23.90;15.40;;;1.20;99.90;;;;;;5034828;28;20021;-61
2023/11/30 02:36:34;;;;;;;26.15;18.05;;;1.10;99.90;;;;;;5034603;28;20113;-61
2023/11/30 02:39:00;;;;;;;27.20;17.42;;;1.10;99.90;;;;;;5034337;28;20049;-61
2023/11/30 02:41:25;;;;;;;26.60;16.00;;;0.90;99.90;;;;;;5034883;28;20025;-58
2023/11/30 02:43:51;;;;;;;25.02;15.32;;;0.90;99.90;;;;;;5034337;28;20045;-60
2023/11/30 02:46:17;;;;;;;23.70;16.35;;;0.80;99.90;;;;;;5034339;28;20366;-60
2023/11/30 02:48:42;;;;;;;29.10;17.13;;;0.70;99.90;;;;;;5034431;28;20065;-59
2023/11/30 02:51:10;;;;;;;26.98;17.30;;;0.70;99.90;;;;;;5034464;28;20091;-59
2023/11/30 02:53:36;;;;;;;27.23;17.33;;;0.70;99.90;;;;;;4999272;28;20435;-60
2023/11/30 02:56:02;;;;;;;26.63;18.52;;;0.50;99.90;;;;;;5034162;28;20030;-66
2023/11/30 02:58:28;;;;;;;22.63;16.08;;;0.50;99.90;;;;;;5034142;28;20021;-58
2023/11/30 03:00:53;;;;;;;21.27;13.63;;;0.40;99.90;;;;;;5034270;28;20036;-65
2023/11/30 03:03:19;;;;;;;23.30;15.38;;;0.20;99.90;;;;;;5033971;28;20048;-61
2023/11/30 03:05:45;;;;;;;23.77;16.85;;;0.10;99.90;;;;;;4999087;28;20052;-66
2023/11/30 03:08:10;;;;;;;26.60;16.77;;;0.20;99.90;;;;;;5034346;28;20101;-60
2023/11/30 03:10:36;;;;;;;24.50;15.90;;;0.40;99.90;;;;;;4999033;28;20084;-59
2023/11/30 03:13:02;;;;;;;23.63;16.10;;;0.60;99.90;;;;;;5033324;28;20030;-64
2023/11/30 03:15:30;;;;;;;25.35;15.30;;;0.70;99.90;;;;;;5033878;28;20034;-64
2023/11/30 03:17:56;;;;;;;24.33;16.42;;;0.70;99.90;;;;;;5014578;28;20034;-58
2023/11/30 03:20:22;;;;;;;20.98;12.88;;;0.90;99.90;;;;;;5033949;28;20035;-60
2023/11/30 03:22:47;;;;;;;25.50;17.10;;;0.60;99.90;;;;;;5033477;28;20104;-65
2023/11/30 03:25:13;;;;;;;22.42;14.32;;;0.70;99.90;;;;;;5033700;28;20033;-60
2023/11/30 03:27:39;;;;;;;24.65;15.85;;;0.60;99.90;;;;;;5033562;28;20034;-59
2023/11/30 03:30:05;;;;;;;25.88;16.63;;;0.70;99.90;;;;;;5033268;28;20113;-63
2023/11/30 03:32:32;;;;;;;23.85;15.82;;;0.60;99.90;;;;;;5033534;28;20025;-65
2023/11/30 03:34:57;;;;;;;24.67;14.48;;;0.50;99.90;;;;;;5033309;28;20026;-63
2023/11/30 03:37:23;;;;;;;23.95;15.50;;;0.40;99.90;;;;;;5033594;28;20028;-63
2023/11/30 03:39:49;;;;;;;19.65;12.40;;;0.60;99.90;;;;;;5033545;28;20022;-66
2023/11/30 03:42:15;;;;;;;22.20;16.33;;;0.60;99.90;;;;;;5033548;28;20036;-59
2023/11/30 03:44:40;;;;;;;22.70;15.75;;;0.80;99.90;;;;;;5033231;28;20310;-58
2023/11/30 03:47:06;;;;;;;23.27;15.25;;;1.00;99.90;;;;;;5033169;28;20377;-65
2023/11/30 03:49:32;;;;;;;22.95;14.15;;;0.90;99.90;;;;;;5033263;28;20079;-65
2023/11/30 03:51:57;;;;;;;30.63;19.38;;;0.80;99.90;;;;;;5033325;28;20072;-57
2023/11/30 03:54:23;;;;;;;27.92;19.25;;;0.80;99.90;;;;;;5033329;28;20074;-62
2023/11/30 03:56:49;;;;;;;27.05;17.95;;;0.80;99.90;;;;;;5032978;28;20039;-60
2023/11/30 03:59:14;;;;;;;25.77;17.23;;;0.80;99.90;;;;;;5033395;28;20071;-62
2023/11/30 04:01:40;;;;;;;24.70;15.93;;;0.90;99.90;;;;;;5033045;28;20071;-59
2023/11/30 04:04:06;;;;;;;24.40;16.48;;;1.00;99.90;;;;;;5032766;28;20509;-62
2023/11/30 04:06:32;;;;;;;22.42;15.00;;;0.80;99.90;;;;;;5014164;28;20029;-61
2023/11/30 04:08:59;;;;;;;29.60;17.30;;;0.90;99.90;;;;;;5013995;28;20078;-58
2023/11/30 04:11:24;;;;;;;27.17;16.58;;;0.80;99.90;;;;;;5032706;28;20536;-62
2023/11/30 04:13:50;;;;;;;24.23;15.55;;;0.70;99.90;;;;;;5032700;28;20171;-62
2023/11/30 04:16:17;;;;;;;24.83;16.48;;;0.70;99.90;;;;;;5014025;28;20037;-59
2023/11/30 04:18:43;;;;;;;24.67;16.52;;;0.70;99.90;;;;;;5032819;28;20113;-63
2023/11/30 04:21:09;;;;;;;21.63;14.75;;;0.70;99.90;;;;;;5032695;28;20654;-58
2023/11/30 04:23:35;;;;;;;23.88;15.55;;;0.70;99.90;;;;;;5013214;28;20037;-62
2023/11/30 04:26:01;;;;;;;22.00;14.57;;;0.80;99.90;;;;;;5013648;28;20053;-63
2023/11/30 04:28:27;;;;;;;20.23;12.77;;;0.80;99.90;;;;;;5032595;28;20546;-55
2023/11/30 04:30:53;;;;;;;24.23;14.38;;;0.80;99.90;;;;;;4997129;28;20056;-65
2023/11/30 04:33:19;;;;;;;28.40;16.00;;;0.70;99.90;;;;;;5031515;28;20033;-57
2023/11/30 04:35:45;;;;;;;22.98;14.75;;;0.60;99.90;;;;;;5052520;28;20487;-59
2023/11/30 04:38:11;;;;;;;24.88;16.20;;;0.70;99.90;;;;;;5016801;28;20106;-63
2023/11/30 04:40:37;;;;;;;22.33;14.65;;;0.60;99.90;;;;;;5033291;28;20480;-56
2023/11/30 04:43:03;;;;;;;20.83;14.32;;;;;;;;;;5052238;28;20069;-60
2023/11/30 04:45:29;;;;;;;18.70;12.20;;;;;;;;;;5052495;28;20051;-62
2023/11/30 04:47:55;;;;;;;20.40;12.95;;;0.90;99.90;;;;;;5052326;28;20032;-65
2023/11/30 04:50:20;;;;;;;18.17;12.10;;;0.80;99.90;;;;;;5051980;28;20028;-59
2023/11/30 04:52:46;;;;;;;20.48;12.52;;;0.90;99.90;;;;;;5050711;28;20021;-57
2023/11/30 04:55:12;;;;;;;14.13;8.88;;;0.90;99.90;;;;;;5051872;28;20025;-62
2023/11/30 04:57:38;;;;;;;13.68;9.52;;;0.70;99.90;;;;;;5051803;28;20107;-62
2023/11/30 05:00:05;;;;;;;16.48;10.75;;;0.70;99.90;;;;;;5052086;28;20024;-60
2023/11/30 05:02:32;;;;;;;17.58;11.02;;;0.50;99.90;;;;;;5051969;28;20041;-58
2023/11/30 05:04:58;;;;;;;16.00;11.25;;;0.50;99.90;;;;;;5051877;28;20094;-55
2023/11/30 05:07:24;;;;;;;17.58;13.00;;;0.50;99.90;;;;;;5051746;28;20108;-61
2023/11/30 05:09:50;;;;;;;19.48;12.30;;;0.50;99.90;;;;;;5052054;28;20032;-61
2023/11/30 05:12:16;;;;;;;17.33;10.63;;;;;;;;;;5051783;28;20052;-66
2023/11/30 05:14:41;;;;;;;21.02;12.60;;;0.80;99.90;;;;;;5052239;28;20032;-59
2023/11/30 05:17:07;;;;;;;18.60;11.52;;;0.80;99.90;;;;;;5034111;28;20037;-60
2023/11/30 05:19:33;;;;;;;19.23;11.20;;;0.70;99.90;;;;;;5051594;28;20055;-61
2023/11/30 05:21:59;;;;;;;14.45;10.60;;;0.90;99.90;;;;;;5051880;28;20112;-63
2023/11/30 05:24:24;;;;;;;19.05;12.25;;;0.80;99.90;;;;;;5051701;28;20041;-64
2023/11/30 05:26:50;;;;;;;16.13;9.75;;;0.80;99.90;;;;;;5049440;28;20025;-64
2023/11/30 05:29:16;;;;;;;17.70;10.65;;;0.60;99.90;;;;;;5040916;28;20025;-59
2023/11/30 05:31:41;;;;;;;19.48;11.75;;;0.60;99.90;;;;;;5015601;28;20481;-60
2023/11/30 05:34:07;;;;;;;17.52;11.40;;;0.50;99.90;;;;;;5051620;28;20116;-64
2023/11/30 05:36:33;;;;;;;20.55;13.48;;;0.50;99.90;;;;;;5019107;28;20064;-61
2023/11/30 05:38:59;;;;;;;20.02;15.35;;;0.60;99.90;;;;;;5003324;28;20037;-63
2023/11/30 05:41:25;;;;;;;23.48;14.25;;;0.90;99.90;;;;;;5055432;28;20109;-62
2023/11/30 05:43:50;;;;;;;26.33;16.10;;;0.90;99.90;;;;;;5055562;28;20044;-60
2023/11/30 05:46:18;;;;;;;27.80;17.42;;;1.00;99.90;;;;;;5036640;28;20029;-60
2023/11/30 05:48:44;;;;;;;23.85;14.20;;;1.20;99.90;;;;;;5049584;28;20040;-59
2023/11/30 05:51:09;;;;;;;23.35;15.57;;;1.10;99.90;;;;;;5016862;28;20037;-62
2023/11/30 05:53:35;;;;;;;24.58;16.45;;;1.20;99.90;;;;;;5035265;28;20521;-60
2023/11/30 05:56:02;;;;;;;30.00;17.10;;;1.40;99.90;;;;;;5035281;28;20107;-59
2023/11/30 05:58:28;;;;;;;27.17;15.10;;;1.30;99.90;;;;;;5035597;28;20496;-63
2023/11/30 06:00:53;;;;;;;32.75;17.30;;;1.40;99.90;;;;;;5044541;28;20034;-60
2023/11/30 06:03:19;;;;;;;28.00;19.77;;;1.40;99.90;;;;;;5043742;28;20117;-58
2023/11/30 06:05:45;;;;;;;29.90;19.10;;;1.40;99.90;;;;;;5046236;28;20125;-61
2023/11/30 06:08:11;;;;;;;28.35;17.30;;;1.40;99.90;;;;;;5045246;28;20109;-61
2023/11/30 06:10:38;;;;;;;29.90;19.70;;;;;;;;;;5043139;28;20025;-67
2023/11/30 06:13:03;;;;;;;22.75;16.45;;;2.00;99.90;;;;;;5045261;28;20465;-60
2023/11/30 06:15:29;;;;;;;45.08;27.77;;;1.90;99.90;;;;;;5037669;28;20060;-58
2023/11/30 06:17:55;;;;;;;24.65;17.30;;;2.30;99.90;;;;;;5034803;28;20029;-62
2023/11/30 06:20:20;;;;;;;31.42;21.52;;;2.10;99.90;;;;;;5035076;28;20230;-64
2023/11/30 06:22:46;;;;;;;28.42;19.80;;;2.50;99.90;;;;;;5034566;28;20025;-58
2023/11/30 06:25:12;;;;;;;27.17;19.13;;;2.80;99.90;;;;;;5042638;28;20037;-58
2023/11/30 06:27:38;;;;;;;51.85;29.58;;;3.00;99.90;;;;;;5044587;28;20029;-63
2023/11/30 06:30:05;;;;;;;34.67;22.92;;;3.00;99.90;;;;;;5043057;28;21636;-59
2023/11/30 06:32:31;;;;;;;28.48;20.05;;;3.00;99.90;;;;;;4993509;28;20487;-58
2023/11/30 06:34:56;;;;;;;28.05;18.92;;;2.90;99.90;;;;;;5026045;28;20029;-56
2023/11/30 06:37:22;;;;;;;21.75;16.33;;;3.00;99.90;;;;;;5039130;28;20481;-59
2023/11/30 06:39:48;;;;;;;21.67;17.02;;;2.90;99.90;;;;;;5044370;28;20025;-59
2023/11/30 06:42:13;;;;;;;24.70;16.23;;;2.90;99.90;;;;;;5053947;28;20029;-56
2023/11/30 06:44:43;;;;;;;21.73;14.85;;;2.90;99.90;;;;;;5038961;28;20072;-58
2023/11/30 06:47:09;;;;;;;21.60;14.07;;;2.80;99.90;;;;;;5033859;28;20022;-60
2023/11/30 06:49:35;;;;;;;19.70;13.63;;;2.60;99.90;;;;;;5034160;28;20086;-58
2023/11/30 06:52:00;;;;;;;27.10;17.45;;;2.50;99.90;;;;;;5049423;28;20033;-61
2023/11/30 06:54:26;;;;;;;26.02;17.50;;;2.70;99.90;;;;;;5040197;28;20033;-60
2023/11/30 06:56:52;;;;;;;24.42;17.27;;;2.80;99.90;;;;;;5015463;28;20037;-56
2023/11/30 06:59:18;;;;;;;17.95;11.75;;;3.00;99.90;;;;;;5045428;28;20120;-55
2023/11/30 07:01:43;;;;;;;24.95;17.20;;;3.20;99.90;;;;;;5044491;28;20045;-55
2023/11/30 07:04:09;;;;;;;22.95;14.52;;;;;;;;;;5044447;28;20376;-57
2023/11/30 07:06:36;;;;;;;24.15;16.90;;;;;;;;;;5042979;28;20044;-57
2023/11/30 07:09:01;;;;;;;19.48;13.43;;;4.30;99.90;;;;;;5039193;28;20030;-61
2023/11/30 07:11:27;;;;;;;20.60;13.20;;;4.10;99.90;;;;;;5033545;28;20021;-57
2023/11/30 07:13:53;;;;;;;24.85;16.58;;;3.80;99.90;;;;;;5033787;28;20029;-55
2023/11/30 07:16:18;;;;;;;26.15;15.52;;;3.80;99.90;;;;;;4998935;28;20072;-60
2023/11/30 07:18:44;;;;;;;24.67;17.75;;;3.70;99.90;;;;;;5033604;28;20067;-61
2023/11/30 07:21:14;;;;;;;29.13;19.77;;;3.60;99.90;;;;;;5034194;28;20025;-56
2023/11/30 07:23:40;;;;;;;26.48;18.95;;;3.60;99.90;;;;;;5033647;28;20047;-58
2023/11/30 07:26:15;;;;;;;19.63;14.52;;;3.80;99.90;;;;;;5033832;28;20100;-61
2023/11/30 07:28:41;;;;;;;21.33;13.32;;;3.70;99.90;;;;;;5033687;28;20025;-59
2023/11/30 07:31:07;;;;;;;16.50;12.63;;;3.60;99.90;;;;;;4998426;28;20057;-61
2023/11/30 07:33:37;;;;;;;15.32;10.48;;;3.50;99.90;;;;;;5033716;28;20033;-58
2023/11/30 07:36:06;;;;;;;17.10;12.18;;;3.40;99.90;;;;;;5033467;28;20034;-58
2023/11/30 07:38:31;;;;;;;14.48;8.90;;;3.30;99.90;;;;;;4998795;28;20049;-57
2023/11/30 07:40:57;;;;;;;15.88;11.20;;;3.40;99.90;;;;;;5033480;28;20339;-58
2023/11/30 07:43:23;;;;;;;19.55;14.02;;;3.40;99.90;;;;;;5033254;28;20034;-62
2023/11/30 07:45:48;;;;;;;21.35;15.18;;;3.40;99.90;;;;;;5033290;28;20030;-58
2023/11/30 07:48:14;;;;;;;18.83;13.52;;;3.50;99.90;;;;;;5033650;28;20100;-61
2023/11/30 07:50:40;;;;;;;17.60;13.00;;;3.60;99.90;;;;;;5033491;28;20164;-58
2023/11/30 07:53:09;;;;;;;20.60;13.70;;;3.80;99.90;;;;;;4998185;28;20033;-61
2023/11/30 07:55:36;;;;;;;24.65;16.52;;;3.90;99.90;;;;;;5032966;28;20033;-57
2023/11/30 07:58:02;;;;;;;21.88;15.77;;;;;;;;;;5015437;28;20040;-62
2023/11/30 08:00:27;;;;;;;24.20;16.48;;;4.10;99.90;;;;;;5033423;28;20029;-58
2023/11/30 08:02:54;;;;;;;23.67;17.88;;;4.10;99.90;;;;;;5014430;28;20051;-59
2023/11/30 08:05:23;;;;;;;22.33;13.88;;;;;;;;;;5033253;28;20038;-60
2023/11/30 08:07:50;;;;;;;24.08;16.75;;;;;;;;;;5033865;28;20030;-60
2023/11/30 08:10:15;;;;;;;23.17;14.68;;;4.70;99.90;;;;;;5051546;28;20021;-62
2023/11/30 08:12:41;;;;;;;21.05;13.68;;;4.60;99.90;;;;;;5047502;28;20086;-62
2023/11/30 08:15:09;;;;;;;36.47;22.83;;;4.70;99.90;;;;;;5042756;28;20381;-61
2023/11/30 08:17:35;;;;;;;21.83;14.68;;;;;;;;;;5025201;28;20052;-65
2023/11/30 08:20:01;;;;;;;17.80;12.90;;;;;;;;;;5048503;28;20443;-62
2023/11/30 08:22:27;;;;;;;19.02;13.30;;;;;;;;;;5042379;28;20065;-60
2023/11/30 08:24:53;;;;;;;19.55;12.68;;;;;;;;;;5042138;28;20032;-62
2023/11/30 08:27:23;;;;;;;12.38;9.77;;;;;;;;;;5040258;28;20108;-57
2023/11/30 08:29:49;;;;;;;16.33;12.48;;;6.70;99.90;;;;;;5036247;28;20095;-61
2023/11/30 08:32:16;;;;;;;17.90;12.65;;;6.70;99.90;;;;;;5030421;28;20532;-58
2023/11/30 08:34:41;;;;;;;16.15;10.43;;;6.70;99.90;;;;;;5032472;28;20036;-61
2023/11/30 08:37:10;;;;;;;16.55;11.65;;;6.50;99.90;;;;;;5036106;28;20549;-60
2023/11/30 08:39:36;;;;;;;17.00;12.68;;;6.40;99.90;;;;;;5042775;28;20036;-54
2023/11/30 08:42:02;;;;;;;17.63;11.32;;;6.40;99.90;;;;;;5052036;28;20028;-57
2023/11/30 08:44:28;;;;;;;20.42;12.35;;;6.30;99.90;;;;;;5015334;28;20041;-56
2023/11/30 08:46:54;;;;;;;18.48;13.82;;;6.30;99.90;;;;;;5051835;28;20388;-59
2023/11/30 08:49:20;;;;;;;13.77;11.25;;;6.40;99.90;;;;;;5052043;28;20029;-58
2023/11/30 08:51:46;;;;;;;17.45;13.00;;;6.20;99.90;;;;;;5052206;28;20483;-58
2023/11/30 08:54:11;;;;;;;16.17;12.65;;;6.40;99.90;;;;;;5049987;28;20033;-56
2023/11/30 08:56:37;;;;;;;15.38;11.50;;;6.50;99.90;;;;;;5047086;28;20102;-59
2023/11/30 08:59:03;;;;;;;16.33;12.52;;;6.30;99.90;;;;;;5052051;28;20027;-57
2023/11/30 09:01:29;;;;;;;17.17;10.30;;;6.40;99.90;;;;;;5051697;28;20021;-57
2023/11/30 09:04:02;;;;;;;17.58;12.27;;;6.30;99.90;;;;;;5051877;28;20041;-57
2023/11/30 09:06:28;;;;;;;17.70;12.65;;;6.40;99.90;;;;;;5049218;28;20035;-54
2023/11/30 09:08:54;;;;;;;17.08;12.82;;;6.40;99.90;;;;;;5047725;28;20025;-62
2023/11/30 09:11:20;;;;;;;18.30;12.02;;;6.70;99.90;;;;;;5041969;28;20692;-54
2023/11/30 09:13:46;;;;;;;16.02;12.05;;;;;;;;;;5018244;28;20029;-57
2023/11/30 09:16:12;;;;;;;17.02;12.90;;;;;;;;;;5022898;28;20127;-53
2023/11/30 09:18:38;;;;;;;19.15;14.82;;;9.30;99.90;;;;;;5042176;28;20471;-55
2023/11/30 09:21:04;;;;;;;105.57;50.85;;;;;;;;;;5040499;28;20018;-53
2023/11/30 09:23:30;;;;;;;51.83;33.97;;;;;;;;;;5040789;28;20060;-53
2023/11/30 09:25:56;;;;;;;14.95;12.20;;;;;;;;;;5036793;28;20071;-55
2023/11/30 09:28:22;;;;;;;14.40;9.90;;;9.80;99.90;;;;;;5031020;28;20412;-54
2023/11/30 09:30:47;;;;;;;15.82;11.65;;;9.90;99.90;;;;;;5042765;28;20048;-53
2023/11/30 09:33:13;;;;;;;25.52;16.17;;;10.10;99.90;;;;;;5047622;28;20098;-54
2023/11/30 09:35:40;;;;;;;14.00;12.50;;;;;;;;;;5050949;28;20104;-53
2023/11/30 09:38:06;;;;;;;13.60;9.68;;;9.60;99.90;;;;;;5032627;28;20033;-54
2023/11/30 09:40:34;;;;;;;17.73;12.73;;;9.60;99.90;;;;;;5051693;28;20460;-53
2023/11/30 09:43:00;;;;;;;9.85;6.05;;;;;;;;;;5050950;28;20107;-54
2023/11/30 09:45:26;;;;;;;11.02;7.95;;;;;;;;;;5051421;28;20388;-55
2023/11/30 09:47:52;;;;;;;12.63;9.85;;;;;;;;;;5051362;28;20115;-54
2023/11/30 09:50:18;;;;;;;15.27;10.63;;;;;;;;;;5049253;28;20033;-54
2023/11/30 09:52:45;;;;;;;15.90;10.48;;;;;;;;;;5050052;28;20027;-54
2023/11/30 09:55:11;;;;;;;18.25;11.30;;;;;;;;;;5051681;28;20396;-53
2023/11/30 09:57:37;;;;;;;11.55;7.60;;;;;;;;;;5051586;28;20031;-52
2023/11/30 10:00:07;;;;;;;9.82;5.90;;;;;;;;;;5051589;28;20024;-53
2023/11/30 10:02:33;;;;;;;12.57;7.88;;;;;;;;;;5051226;28;20037;-53
2023/11/30 10:04:59;;;;;;;12.65;7.78;;;;;;;;;;5016154;28;20120;-54
2023/11/30 10:07:25;;;;;;;10.60;7.60;;;;;;;;;;5051380;28;20028;-54
2023/11/30 10:09:51;;;;;;;12.00;8.05;;;;;;;;;;5049135;28;20048;-54
2023/11/30 10:12:19;;;;;;;10.63;7.13;;;;;;;;;;5051701;28;20051;-53
2023/11/30 10:14:46;;;;;;;9.50;7.63;;;;;;;;;;5051345;28;20041;-53
2023/11/30 10:17:12;;;;;;;12.77;8.63;;;;;;;;;;5043707;28;20041;-53
2023/11/30 10:19:38;;;;;;;13.13;8.48;;;9.30;99.90;;;;;;5012634;28;20046;-53
2023/11/30 10:22:04;;;;;;;12.07;8.07;;;9.30;99.90;;;;;;5031719;28;20049;-54
2023/11/30 10:24:30;;;;;;;11.52;7.35;;;9.30;99.90;;;;;;5034735;28;20076;-54
2023/11/30 10:27:00;;;;;;;12.77;8.60;;;9.20;99.90;;;;;;5034842;28;20441;-52
2023/11/30 10:29:30;;;;;;;14.30;8.68;;;9.40;99.90;;;;;;5035145;28;20080;-53
2023/11/30 10:32:02;;;;;;;10.80;7.95;;;9.40;99.90;;;;;;5035891;28;20053;-53
2023/11/30 10:34:32;;;;;;;15.95;11.02;;;9.30;99.90;;;;;;5054564;28;20124;-53
2023/11/30 10:37:00;;;;;;;13.93;10.15;;;9.30;99.90;;;;;;5054817;28;20444;-53
2023/11/30 10:39:35;;;;;;;15.25;10.77;;;9.40;99.90;;;;;;5054851;28;20438;-54
2023/11/30 10:42:08;;;;;;;16.63;9.82;;;9.60;99.90;;;;;;5040204;28;20385;-53
2023/11/30 10:44:36;;;;;;;14.10;9.35;;;;;;;;;;5034285;28;20099;-53
2023/11/30 10:47:02;;;;;;;12.63;8.63;;;;;;;;;;5034573;28;20428;-53
2023/11/30 10:49:29;;;;;;;13.80;8.88;;;9.90;99.90;;;;;;5015890;28;20033;-53
2023/11/30 10:51:57;;;;;;;14.95;8.07;;;9.90;99.90;;;;;;5046811;28;20028;-53
2023/11/30 10:54:30;;;;;;;46.17;17.17;;;9.90;99.90;;;;;;5042177;28;20029;-54
2023/11/30 10:56:58;;;;;;;27.13;14.15;;;9.90;99.90;;;;;;5040210;28;20034;-54
2023/11/30 10:59:24;;;;;;;27.40;11.88;;;;;;;;;;5034392;28;20028;-53
2023/11/30 11:01:50;;;;;;;28.45;12.75;;;9.60;99.90;;;;;;5015752;28;20033;-53
2023/11/30 11:04:16;;;;;;;24.67;12.30;;;9.50;99.90;;;;;;5034001;28;20040;-52
2023/11/30 11:06:42;;;;;;;19.73;12.20;;;9.60;99.90;;;;;;5034118;28;20029;-52
2023/11/30 11:09:11;;;;;;;22.90;15.30;;;9.40;99.90;;;;;;5034255;28;20025;-54
2023/11/30 11:11:40;;;;;;;17.00;10.18;;;9.50;99.90;;;;;;5033884;28;20033;-54
2023/11/30 11:14:06;;;;;;;26.98;13.55;;;9.40;99.90;;;;;;4999114;28;20034;-53
2023/11/30 11:16:36;;;;;;;12.13;8.63;;;;;;;;;;5033839;28;20029;-52
2023/11/30 11:19:04;;;;;;;18.67;12.63;;;8.90;99.90;;;;;;5033996;28;20029;-54
2023/11/30 11:21:39;;;;;;;15.82;9.90;;;9.10;99.90;;;;;;5033784;28;20032;-54
2023/11/30 11:24:06;;;;;;;15.73;10.77;;;9.00;99.90;;;;;;5033790;28;20037;-53
2023/11/30 11:26:49;;;;;;;14.07;10.32;;;9.00;99.90;;;;;;5031581;28;20045;-53
2023/11/30 11:29:15;;;;;;;14.10;10.25;;;8.90;99.90;;;;;;5033910;28;20029;-54
2023/11/30 11:31:42;;;;;;;15.38;11.23;;;9.00;99.90;;;;;;5033573;28;20053;-52
2023/11/30 11:34:09;;;;;;;17.25;11.85;;;9.10;99.90;;;;;;5033280;28;20045;-53
2023/11/30 11:36:36;;;;;;;19.90;14.13;;;9.20;99.90;;;;;;5033450;28;20025;-54
2023/11/30 11:39:02;;;;;;;13.10;8.85;;;9.20;99.90;;;;;;5033915;28;20040;-52
2023/11/30 11:41:28;;;;;;;18.00;11.98;;;9.10;99.90;;;;;;5033937;28;20083;-55
2023/11/30 11:43:54;;;;;;;12.48;9.43;;;9.00;99.90;;;;;;5033278;28;20037;-53
2023/11/30 11:46:19;;;;;;;11.73;9.90;;;9.00;99.90;;;;;;5031263;28;20084;-53
2023/11/30 11:48:46;;;;;;;11.05;9.80;;;8.90;99.90;;;;;;5033551;28;20044;-53
2023/11/30 11:51:12;;;;;;;14.60;10.73;;;8.90;99.90;;;;;;5033619;28;20025;-53
2023/11/30 11:53:40;;;;;;;15.43;9.32;;;8.90;99.90;;;;;;5033155;28;20398;-53
2023/11/30 11:56:07;;;;;;;14.63;10.02;;;8.90;99.90;;;;;;5033297;28;20040;-54
2023/11/30 11:58:35;;;;;;;13.05;8.43;;;;;;;;;;5033038;28;20053;-53
2023/11/30 12:01:01;;;;;;;14.88;11.50;;;;;;;;;;5033216;28;20048;-52
2023/11/30 12:03:27;;;;;;;15.07;10.52;;;9.10;99.90;;;;;;5014412;28;20033;-53
2023/11/30 12:05:53;;;;;;;11.00;9.50;;;;;;;;;;5014321;28;20536;-54
2023/11/30 12:08:34;;;;;;;12.88;9.82;;;9.20;99.90;;;;;;5032970;28;20536;-53
2023/11/30 12:11:00;;;;;;;18.23;12.47;;;9.30;99.90;;;;;;5032841;28;20034;-53
2023/11/30 12:13:27;;;;;;;12.73;10.10;;;9.40;99.90;;;;;;4997971;28;20341;-53
2023/11/30 12:15:54;;;;;;;15.23;10.95;;;9.30;99.90;;;;;;5033060;28;20041;-52
2023/11/30 12:18:20;;;;;;;14.30;9.40;;;;;;;;;;5032816;28;20037;-53
2023/11/30 12:20:47;;;;;;;17.48;12.02;;;9.40;99.90;;;;;;5032551;28;20143;-52
2023/11/30 12:23:13;;;;;;;17.73;10.23;;;;;;;;;;5032657;28;20069;-54
2023/11/30 12:25:39;;;;;;;25.85;13.77;;;;;;;;;;5032854;28;20037;-53
2023/11/30 12:28:06;;;;;;;20.30;11.60;;;;;;;;;;5032654;28;20021;-54
2023/11/30 12:30:32;;;;;;;19.60;12.43;;;;;;;;;;5032605;28;20065;-53
2023/11/30 12:32:59;;;;;;;15.68;10.10;;;;;;;;;;5032605;28;20059;-52
2023/11/30 12:35:24;;;;;;;13.32;7.32;;;9.10;99.90;;;;;;5033023;28;20057;-55
2023/11/30 12:37:50;;;;;;;25.27;15.23;;;9.20;99.90;;;;;;5032589;28;20060;-53
2023/11/30 12:40:16;;;;;;;18.05;8.15;;;9.30;99.90;;;;;;5032377;28;20033;-54
2023/11/30 12:42:42;;;;;;;23.95;11.85;;;;;;;;;;5032265;28;20026;-53
2023/11/30 12:45:09;;;;;;;26.23;14.32;;;9.40;99.90;;;;;;5031672;28;20045;-53
2023/11/30 12:47:35;;;;;;;30.45;13.30;;;;;;;;;;5032431;28;20079;-53